createdAt,value
2018-04-24T00:01:02.589Z,12.20
2018-04-24T00:03:33.549Z,11.93
2018-04-24T00:06:02.618Z,13.63
2018-04-24T00:08:31.036Z,13.20
2018-04-24T00:11:00.089Z,10.83
2018-04-24T00:13:28.489Z,11.50
2018-04-24T00:15:56.793Z,15.03
2018-04-24T00:18:25.174Z,14.53
2018-04-24T00:20:53.529Z,15.43
2018-04-24T00:23:21.922Z,16.40
2018-04-24T00:25:50.988Z,13.02
2018-04-24T00:28:20.793Z,13.43
2018-04-24T00:30:49.127Z,11.87
2018-04-24T00:33:17.460Z,15.50
2018-04-24T00:35:45.810Z,11.20
2018-04-24T00:38:14.218Z,11.30
2018-04-24T00:40:43.524Z,11.93
2018-04-24T00:43:12.597Z,11.03
2018-04-24T00:45:40.922Z,11.27
2018-04-24T00:48:09.986Z,8.00
2018-04-24T00:50:38.273Z,10.87
2018-04-24T00:53:25.334Z,10.43
2018-04-24T00:55:54.650Z,11.23
2018-04-24T00:58:23.003Z,11.10
2018-04-24T01:00:51.325Z,8.17
2018-04-24T01:03:19.645Z,10.47
2018-04-24T01:05:47.952Z,11.90
2018-04-24T01:08:16.314Z,10.07
2018-04-24T01:10:44.590Z,10.23
2018-04-24T01:13:12.854Z,8.20
2018-04-24T01:15:41.236Z,9.98
2018-04-24T01:18:09.516Z,9.97
2018-04-24T01:20:37.871Z,11.37
2018-04-24T01:23:07.022Z,9.90
2018-04-24T01:25:35.565Z,9.07
2018-04-24T01:28:03.861Z,6.17
2018-04-24T01:30:32.199Z,9.07
2018-04-24T01:33:01.506Z,9.53
2018-04-24T01:35:30.524Z,8.73
2018-04-24T01:37:58.890Z,7.70
2018-04-24T01:40:27.940Z,10.70
2018-04-24T01:42:56.389Z,11.38
2018-04-24T01:45:24.699Z,8.53
2018-04-24T01:47:52.995Z,8.57
2018-04-24T01:50:21.265Z,11.13
2018-04-24T01:52:49.576Z,10.80
2018-04-24T01:55:18.801Z,8.40
2018-04-24T01:57:47.242Z,9.73
2018-04-24T02:00:16.346Z,5.33
2018-04-24T02:02:44.802Z,8.70
2018-04-24T02:05:13.934Z,9.77
2018-04-24T02:07:42.302Z,5.27
2018-04-24T02:10:10.630Z,5.27
2018-04-24T02:12:39.000Z,5.75
2018-04-24T02:15:07.299Z,4.43
2018-04-24T02:17:35.730Z,4.30
2018-04-24T02:20:03.984Z,4.97
2018-04-24T02:22:32.325Z,5.43
2018-04-24T02:25:00.689Z,4.00
2018-04-24T02:27:30.796Z,5.73
2018-04-24T02:29:59.170Z,8.17
2018-04-24T02:32:27.555Z,7.57
2018-04-24T02:34:55.871Z,7.77
2018-04-24T02:37:24.470Z,7.80
2018-04-24T02:39:53.546Z,5.40
2018-04-24T02:42:21.884Z,6.68
2018-04-24T02:44:50.181Z,7.18
2018-04-24T02:47:18.495Z,7.83
2018-04-24T02:49:47.651Z,8.27
2018-04-24T02:52:16.070Z,8.40
2018-04-24T02:54:45.166Z,5.67
2018-04-24T02:57:15.361Z,7.62
2018-04-24T02:59:43.647Z,5.80
2018-04-24T03:02:11.959Z,8.53
2018-04-24T03:04:40.254Z,7.10
2018-04-24T03:07:08.555Z,7.00
2018-04-24T03:09:37.764Z,5.75
2018-04-24T03:12:06.095Z,9.80
2018-04-24T03:14:34.396Z,8.37
2018-04-24T03:17:02.704Z,5.07
2018-04-24T03:19:31.803Z,6.82
2018-04-24T03:22:00.860Z,6.73
2018-04-24T03:24:29.338Z,5.10
2018-04-24T03:26:57.819Z,7.63
2018-04-24T03:29:26.259Z,6.37
2018-04-24T03:31:54.639Z,7.87
2018-04-24T03:34:23.736Z,5.40
2018-04-24T03:36:52.984Z,5.03
2018-04-24T03:39:21.461Z,6.90
2018-04-24T03:41:49.780Z,7.32
2018-04-24T03:44:18.961Z,5.00
2018-04-24T03:46:47.301Z,4.80
2018-04-24T03:49:15.851Z,9.73
2018-04-24T03:51:45.045Z,6.33
2018-04-24T03:54:14.215Z,5.40
2018-04-24T03:56:42.519Z,6.37
2018-04-24T03:59:11.655Z,7.18
2018-04-24T04:01:40.057Z,8.83
2018-04-24T04:04:08.819Z,5.22
2018-04-24T04:06:37.124Z,6.67
2018-04-24T04:09:05.446Z,7.37
2018-04-24T04:11:33.776Z,7.97
2018-04-24T04:14:02.219Z,8.47
2018-04-24T04:16:30.496Z,7.10
2018-04-24T04:19:16.740Z,6.35
2018-04-24T04:22:03.824Z,6.53
2018-04-24T04:24:52.205Z,6.07
2018-04-24T04:27:20.514Z,8.73
2018-04-24T04:29:49.652Z,5.63
2018-04-24T04:32:18.161Z,7.22
2018-04-24T04:34:46.592Z,9.30
2018-04-24T04:37:14.912Z,6.03
2018-04-24T04:39:43.226Z,7.07
2018-04-24T04:42:11.950Z,8.37
2018-04-24T04:44:40.260Z,7.20
2018-04-24T04:47:08.686Z,8.38
2018-04-24T04:49:37.246Z,11.17
2018-04-24T04:52:06.853Z,7.75
2018-04-24T04:54:37.047Z,5.80
2018-04-24T04:57:05.398Z,8.77
2018-04-24T04:59:33.707Z,10.37
2018-04-24T05:02:02.035Z,11.57
2018-04-24T05:04:30.441Z,10.00
2018-04-24T05:06:58.738Z,9.35
2018-04-24T05:09:27.068Z,7.43
2018-04-24T05:11:55.404Z,12.13
2018-04-24T05:14:23.735Z,6.97
2018-04-24T05:16:52.023Z,8.10
2018-04-24T05:19:20.317Z,9.07
2018-04-24T05:21:48.621Z,10.33
2018-04-24T05:24:18.862Z,10.80
2018-04-24T05:26:47.168Z,8.47
2018-04-24T05:29:15.476Z,8.97
2018-04-24T05:31:43.812Z,13.20
2018-04-24T05:34:12.216Z,9.20
2018-04-24T05:36:40.497Z,10.07
2018-04-24T05:39:08.887Z,9.13
2018-04-24T05:41:37.322Z,9.63
2018-04-24T05:44:06.037Z,7.73
2018-04-24T05:46:34.372Z,10.67
2018-04-24T05:49:02.677Z,9.80
2018-04-24T05:51:31.047Z,8.77
2018-04-24T05:53:59.483Z,7.50
2018-04-24T05:56:28.577Z,8.15
2018-04-24T05:58:57.749Z,8.13
2018-04-24T06:01:26.075Z,7.10
2018-04-24T06:03:54.392Z,10.13
2018-04-24T06:06:22.900Z,8.27
2018-04-24T06:08:51.369Z,8.60
2018-04-24T06:11:19.688Z,7.37
2018-04-24T06:13:48.155Z,9.88
2018-04-24T06:16:17.226Z,14.27
2018-04-24T06:18:45.556Z,10.40
2018-04-24T06:21:13.950Z,10.27
2018-04-24T06:23:43.440Z,8.43
2018-04-24T06:26:11.758Z,7.63
2018-04-24T06:28:40.229Z,7.67
2018-04-24T06:31:09.121Z,11.57
2018-04-24T06:33:37.555Z,10.30
2018-04-24T06:36:05.857Z,7.10
2018-04-24T06:38:34.095Z,8.27
2018-04-24T06:41:03.315Z,12.93
2018-04-24T06:43:31.595Z,9.17
2018-04-24T06:45:59.905Z,8.50
2018-04-24T06:48:28.237Z,6.37
2018-04-24T06:50:56.640Z,6.90
2018-04-24T06:53:25.042Z,11.12
2018-04-24T06:55:53.454Z,7.73
2018-04-24T06:58:22.792Z,8.87
2018-04-24T07:00:51.158Z,7.90
2018-04-24T07:03:19.466Z,7.30
2018-04-24T07:05:47.780Z,5.93
2018-04-24T07:08:16.091Z,5.95
2018-04-24T07:10:44.492Z,6.27
2018-04-24T07:13:12.901Z,7.97
2018-04-24T07:15:41.192Z,6.77
2018-04-24T07:18:09.542Z,7.27
2018-04-24T07:20:38.056Z,7.90
2018-04-24T07:23:08.268Z,7.07
2018-04-24T07:25:38.461Z,10.00
2018-04-24T07:28:06.796Z,9.47
2018-04-24T07:30:35.103Z,10.90
2018-04-24T07:33:03.424Z,8.43
2018-04-24T07:35:31.836Z,8.17
2018-04-24T07:38:00.347Z,7.70
2018-04-24T07:40:28.966Z,6.37
2018-04-24T07:42:57.257Z,6.20
2018-04-24T07:45:26.366Z,4.60
2018-04-24T07:47:55.517Z,6.10
2018-04-24T07:50:23.936Z,9.83
2018-04-24T07:52:53.135Z,5.33
2018-04-24T07:55:22.270Z,13.33
2018-04-24T07:57:51.432Z,10.23
2018-04-24T08:00:20.578Z,7.43
2018-04-24T08:02:48.934Z,7.90
2018-04-24T08:05:17.358Z,8.37
2018-04-24T08:07:45.698Z,7.27
2018-04-24T08:10:14.012Z,9.18
2018-04-24T08:12:43.063Z,7.67
2018-04-24T08:15:11.512Z,11.33
2018-04-24T08:17:40.570Z,7.57
2018-04-24T08:20:08.921Z,9.60
2018-04-24T08:22:40.788Z,8.60
2018-04-24T08:25:09.101Z,8.70
2018-04-24T08:27:37.386Z,9.37
2018-04-24T08:30:06.466Z,7.53
2018-04-24T08:32:34.777Z,7.03
2018-04-24T08:35:03.182Z,6.90
2018-04-24T08:37:31.615Z,5.03
2018-04-24T08:40:00.883Z,11.07
2018-04-24T08:42:29.346Z,16.30
2018-04-24T08:44:57.777Z,7.90
2018-04-24T08:47:27.168Z,9.03
2018-04-24T08:49:55.514Z,10.65
2018-04-24T08:52:23.837Z,6.13
2018-04-24T08:54:53.111Z,13.70
2018-04-24T08:57:21.422Z,11.23
2018-04-24T08:59:50.474Z,10.83
2018-04-24T09:02:18.818Z,6.97
2018-04-24T09:04:49.706Z,9.50
2018-04-24T09:07:18.003Z,11.97
2018-04-24T09:09:47.222Z,11.03
2018-04-24T09:12:15.767Z,8.57
2018-04-24T09:14:44.286Z,7.97
2018-04-24T09:17:12.617Z,9.63
2018-04-24T09:19:42.497Z,7.07
2018-04-24T09:22:10.836Z,10.75
2018-04-24T09:24:39.880Z,10.57
2018-04-24T09:27:08.373Z,9.47
2018-04-24T09:29:37.424Z,16.20
2018-04-24T09:32:05.839Z,10.63
2018-04-24T09:34:35.329Z,8.53
2018-04-24T09:37:03.774Z,16.58
2018-04-24T09:39:32.830Z,10.60
2018-04-24T09:42:01.191Z,7.63
2018-04-24T09:44:29.456Z,9.57
2018-04-24T09:46:57.812Z,10.33
2018-04-24T09:49:26.212Z,8.50
2018-04-24T09:51:54.634Z,8.63
2018-04-24T09:54:22.963Z,8.07
2018-04-24T09:56:51.468Z,9.00
2018-04-24T09:59:19.775Z,11.70
2018-04-24T10:01:48.064Z,8.38
2018-04-24T10:04:17.340Z,13.55
2018-04-24T10:06:45.635Z,11.23
2018-04-24T10:09:13.954Z,9.13
2018-04-24T10:11:42.274Z,8.27
2018-04-24T10:14:10.600Z,11.40
2018-04-24T10:16:38.923Z,6.95
2018-04-24T10:19:07.396Z,10.70
2018-04-24T10:21:35.750Z,10.87
2018-04-24T10:24:04.105Z,8.70
2018-04-24T10:26:32.534Z,9.20
2018-04-24T10:29:00.826Z,11.73
2018-04-24T10:31:29.158Z,9.40
2018-04-24T10:33:57.455Z,11.50
2018-04-24T10:36:25.793Z,10.07
2018-04-24T10:38:54.137Z,11.30
2018-04-24T10:41:22.571Z,8.63
2018-04-24T10:43:51.087Z,8.25
2018-04-24T10:46:19.509Z,11.57
2018-04-24T10:48:47.894Z,8.23
2018-04-24T10:51:16.223Z,8.33
2018-04-24T10:53:44.554Z,10.23
2018-04-24T10:56:12.972Z,12.47
2018-04-24T10:58:46.656Z,10.17
2018-04-24T11:01:15.008Z,13.27
2018-04-24T11:03:43.502Z,8.77
2018-04-24T11:06:11.994Z,8.67
2018-04-24T11:08:40.396Z,11.47
2018-04-24T11:11:08.719Z,15.50
2018-04-24T11:13:37.901Z,13.80
2018-04-24T11:16:06.991Z,11.53
2018-04-24T11:18:36.341Z,12.83
2018-04-24T11:21:04.809Z,14.15
2018-04-24T11:23:33.136Z,17.03
2018-04-24T11:26:01.685Z,13.93
2018-04-24T11:28:30.294Z,11.60
2018-04-24T11:30:58.846Z,18.58
2018-04-24T11:33:27.168Z,12.23
2018-04-24T11:35:55.644Z,13.03
2018-04-24T11:38:24.260Z,16.23
2018-04-24T11:40:52.663Z,13.77
2018-04-24T11:43:21.071Z,17.13
2018-04-24T11:45:49.379Z,14.00
2018-04-24T11:48:18.481Z,13.77
2018-04-24T11:50:47.556Z,11.70
2018-04-24T11:53:15.896Z,12.23
2018-04-24T11:58:06.926Z,17.93
2018-04-24T12:00:35.481Z,11.00
2018-04-24T12:03:03.865Z,17.23
2018-04-24T12:05:32.332Z,17.57
2018-04-24T12:08:00.890Z,12.93
2018-04-24T12:10:29.366Z,13.37
2018-04-24T12:12:57.741Z,14.23
2018-04-24T12:15:26.212Z,18.58
2018-04-24T12:17:54.518Z,10.32
2018-04-24T12:20:23.619Z,11.48
2018-04-24T12:22:52.773Z,11.97
2018-04-24T12:25:21.136Z,10.80
2018-04-24T12:27:50.140Z,14.77
2018-04-24T12:30:18.478Z,15.57
2018-04-24T12:32:46.940Z,13.33
2018-04-24T12:35:16.067Z,15.10
2018-04-24T12:37:44.447Z,12.07
2018-04-24T12:40:13.023Z,11.10
2018-04-24T12:42:41.572Z,12.33
2018-04-24T12:45:10.043Z,9.40
2018-04-24T12:47:39.093Z,10.50
2018-04-24T12:50:07.567Z,10.85
2018-04-24T12:52:35.881Z,10.75
2018-04-24T12:55:04.304Z,12.80
2018-04-24T12:57:32.749Z,11.27
2018-04-24T13:00:01.089Z,8.43
2018-04-24T13:02:29.432Z,13.00
2018-04-24T13:04:58.595Z,9.30
2018-04-24T13:07:27.015Z,11.17
2018-04-24T13:09:56.107Z,10.07
2018-04-24T13:12:25.263Z,11.47
2018-04-24T13:14:53.673Z,12.03
2018-04-24T13:17:22.854Z,8.98
2018-04-24T13:19:51.944Z,11.87
2018-04-24T13:22:20.293Z,13.50
2018-04-24T13:24:48.635Z,10.05
2018-04-24T13:27:17.162Z,12.77
2018-04-24T13:29:46.762Z,15.60
2018-04-24T13:32:15.110Z,9.83
2018-04-24T13:34:43.842Z,11.53
2018-04-24T13:37:12.368Z,11.53
2018-04-24T13:39:41.010Z,11.47
2018-04-24T13:42:09.541Z,14.93
2018-04-24T13:44:38.079Z,11.20
2018-04-24T13:47:06.468Z,10.25
2018-04-24T13:49:35.029Z,9.57
2018-04-24T13:52:03.354Z,12.05
2018-04-24T13:54:32.655Z,10.70
2018-04-24T13:57:01.773Z,9.27
2018-04-24T13:59:30.128Z,13.10
2018-04-24T14:01:59.818Z,11.07
2018-04-24T14:04:28.564Z,10.90
2018-04-24T14:06:56.926Z,12.07
2018-04-24T14:09:25.370Z,11.23
2018-04-24T14:11:54.461Z,10.30
2018-04-24T14:14:23.800Z,9.47
2018-04-24T14:16:52.425Z,10.45
2018-04-24T14:19:20.848Z,11.37
2018-04-24T14:21:50.271Z,14.52
2018-04-24T14:24:18.741Z,10.90
2018-04-24T14:26:47.154Z,10.35
2018-04-24T14:29:15.621Z,10.57
2018-04-24T14:31:43.963Z,11.07
2018-04-24T14:34:13.169Z,11.83
2018-04-24T14:36:41.507Z,13.57
2018-04-24T14:39:09.956Z,12.60
2018-04-24T14:41:38.590Z,12.57
2018-04-24T14:44:06.948Z,10.13
2018-04-24T14:46:35.333Z,11.37
2018-04-24T14:49:03.681Z,11.40
2018-04-24T14:51:32.011Z,12.10
2018-04-24T14:54:01.675Z,12.17
2018-04-24T14:56:30.175Z,10.70
2018-04-24T14:58:58.675Z,13.17
2018-04-24T15:01:27.840Z,12.60
2018-04-24T15:03:56.406Z,11.70
2018-04-24T15:06:26.631Z,14.35
2018-04-24T15:08:55.019Z,14.30
2018-04-24T15:11:24.334Z,15.63
2018-04-24T15:13:54.333Z,13.50
2018-04-24T15:16:22.796Z,16.62
2018-04-24T15:18:51.249Z,12.57
2018-04-24T15:21:19.631Z,12.65
2018-04-24T15:23:48.809Z,10.80
2018-04-24T15:26:17.320Z,11.50
2018-04-24T15:28:45.623Z,10.27
2018-04-24T15:31:14.345Z,14.20
2018-04-24T15:33:42.757Z,13.50
2018-04-24T15:36:11.123Z,11.90
2018-04-24T15:38:40.458Z,11.57
2018-04-24T15:41:08.800Z,11.43
2018-04-24T15:43:37.155Z,13.20
2018-04-24T15:46:05.561Z,14.00
2018-04-24T15:48:34.276Z,10.83
2018-04-24T15:51:02.606Z,9.68
2018-04-24T15:53:31.791Z,12.00
2018-04-24T15:56:00.156Z,10.80
2018-04-24T15:58:28.503Z,12.45
2018-04-24T16:00:56.817Z,12.73
2018-04-24T16:03:25.163Z,12.97
2018-04-24T16:05:53.807Z,10.87
2018-04-24T16:08:23.151Z,15.33
2018-04-24T16:10:52.891Z,11.15
2018-04-24T16:13:22.466Z,12.03
2018-04-24T16:15:50.820Z,10.83
2018-04-24T16:18:19.216Z,10.83
2018-04-24T16:20:47.708Z,12.93
2018-04-24T16:23:15.999Z,13.00
2018-04-24T16:25:44.459Z,13.30
2018-04-24T16:28:12.846Z,12.93
2018-04-24T16:30:41.337Z,11.30
2018-04-24T16:33:09.978Z,10.10
2018-04-24T16:35:39.417Z,11.53
2018-04-24T16:38:07.862Z,14.03
2018-04-24T16:40:37.031Z,11.27
2018-04-24T16:43:06.206Z,10.17
2018-04-24T16:45:36.152Z,11.98
2018-04-24T16:48:06.481Z,11.57
2018-04-24T16:50:35.923Z,11.10
2018-04-24T16:53:04.341Z,10.37
2018-04-24T16:55:32.747Z,12.30
2018-04-24T16:58:01.873Z,15.13
2018-04-24T17:00:30.355Z,11.80
2018-04-24T17:02:58.989Z,10.80
2018-04-24T17:05:27.449Z,13.13
2018-04-24T17:07:55.745Z,9.90
2018-04-24T17:10:24.291Z,12.60
2018-04-24T17:12:52.860Z,15.60
2018-04-24T17:15:21.261Z,13.67
2018-04-24T17:17:49.787Z,11.82
2018-04-24T17:20:18.306Z,14.90
2018-04-24T17:22:46.733Z,9.90
2018-04-24T17:25:16.177Z,12.27
2018-04-24T17:27:44.505Z,16.93
2018-04-24T17:30:12.888Z,8.93
2018-04-24T17:32:41.259Z,12.77
2018-04-24T17:35:09.810Z,12.43
2018-04-24T17:37:38.500Z,14.50
2018-04-24T17:40:06.796Z,13.73
2018-04-24T17:42:35.185Z,11.43
2018-04-24T17:45:03.522Z,12.80
2018-04-24T17:47:31.861Z,10.23
2018-04-24T17:50:00.289Z,12.20
2018-04-24T17:52:29.723Z,11.90
2018-04-24T17:54:58.134Z,11.77
2018-04-24T17:57:27.333Z,12.17
2018-04-24T17:59:56.499Z,11.30
2018-04-24T18:02:24.928Z,13.70
2018-04-24T18:04:53.304Z,11.63
2018-04-24T18:07:21.819Z,11.30
2018-04-24T18:09:50.268Z,12.50
2018-04-24T18:12:19.353Z,13.70
2018-04-24T18:14:47.806Z,10.10
2018-04-24T18:17:16.305Z,13.63
2018-04-24T18:19:45.424Z,13.50
2018-04-24T18:22:13.873Z,11.00
2018-04-24T18:24:43.121Z,10.33
2018-04-24T18:27:11.635Z,14.20
2018-04-24T18:29:40.028Z,9.40
2018-04-24T18:32:09.069Z,17.83
2018-04-24T18:34:37.737Z,13.17
2018-04-24T18:37:06.846Z,11.57
2018-04-24T18:39:35.444Z,12.32
2018-04-24T18:42:03.951Z,10.53
2018-04-24T18:44:32.324Z,9.73
2018-04-24T18:47:00.881Z,18.57
2018-04-24T18:49:29.736Z,17.00
2018-04-24T18:51:59.319Z,13.17
2018-04-24T18:54:27.696Z,10.37
2018-04-24T18:56:56.103Z,12.90
2018-04-24T18:59:24.613Z,15.10
2018-04-24T19:01:52.954Z,12.90
2018-04-24T19:04:22.371Z,13.20
2018-04-24T19:06:50.784Z,13.50
2018-04-24T19:09:19.240Z,10.07
2018-04-24T19:11:47.638Z,10.23
2018-04-24T19:14:21.470Z,14.60
2018-04-24T19:16:49.866Z,12.27
2018-04-24T19:19:23.751Z,25.23
2018-04-24T19:21:52.360Z,16.10
2018-04-24T19:24:26.204Z,16.27
2018-04-24T19:26:54.566Z,9.60
2018-04-24T19:29:23.671Z,12.07
2018-04-24T19:31:57.695Z,14.03
2018-04-24T19:34:26.117Z,15.80
2018-04-24T19:36:54.544Z,15.03
2018-04-24T19:39:28.741Z,15.93
2018-04-24T19:41:57.863Z,13.13
2018-04-24T19:44:26.348Z,15.50
2018-04-24T19:46:54.716Z,13.60
2018-04-24T19:49:28.737Z,14.77
2018-04-24T19:51:57.158Z,14.03
2018-04-24T19:54:25.608Z,12.35
2018-04-24T19:56:53.990Z,15.03
2018-04-24T19:59:22.440Z,13.67
2018-04-24T20:01:50.763Z,13.00
2018-04-24T20:04:19.484Z,12.00
2018-04-24T20:06:48.610Z,12.67
2018-04-24T20:09:16.986Z,11.47
2018-04-24T20:11:45.362Z,10.30
2018-04-24T20:14:13.760Z,16.23
2018-04-24T20:16:42.377Z,10.93
2018-04-24T20:19:10.899Z,14.07
2018-04-24T20:21:40.233Z,15.90
2018-04-24T20:24:09.766Z,14.30
2018-04-24T20:26:38.233Z,14.23
2018-04-24T20:29:06.708Z,17.93
2018-04-24T20:31:35.111Z,13.57
2018-04-24T20:34:03.517Z,15.50
2018-04-24T20:36:32.657Z,18.80
2018-04-24T20:39:00.992Z,11.70
2018-04-24T20:41:30.132Z,16.10
2018-04-24T20:43:58.565Z,18.10
2018-04-24T20:46:27.721Z,18.67
2018-04-24T20:48:56.260Z,11.93
2018-04-24T20:51:24.722Z,16.77
2018-04-24T20:53:53.139Z,14.80
2018-04-24T20:56:21.524Z,17.92
2018-04-24T20:58:49.884Z,15.50
2018-04-24T21:01:18.468Z,13.40
2018-04-24T21:03:46.966Z,15.20
2018-04-24T21:06:15.386Z,16.77
2018-04-24T21:08:43.691Z,13.35
2018-04-24T21:11:12.837Z,16.90
2018-04-24T21:13:41.120Z,16.35
2018-04-24T21:16:09.532Z,14.97
2018-04-24T21:18:38.845Z,17.73
2018-04-24T21:21:07.929Z,17.03
2018-04-24T21:23:37.036Z,16.00
2018-04-24T21:26:06.586Z,13.50
2018-04-24T21:28:34.990Z,15.50
2018-04-24T21:31:03.331Z,15.87
2018-04-24T21:33:31.722Z,15.67
2018-04-24T21:36:00.081Z,15.90
2018-04-24T21:38:28.463Z,19.37
2018-04-24T21:40:56.788Z,18.67
2018-04-24T21:43:25.261Z,17.90
2018-04-24T21:45:53.613Z,18.40
2018-04-24T21:48:22.422Z,17.77
2018-04-24T21:50:50.802Z,15.43
2018-04-24T21:53:19.142Z,19.40
2018-04-24T21:55:48.502Z,23.77
2018-04-24T21:58:18.853Z,14.27
2018-04-24T22:00:47.301Z,14.07
2018-04-24T22:03:15.655Z,18.23
2018-04-24T22:05:44.001Z,14.63
2018-04-24T22:08:12.482Z,12.43
2018-04-24T22:10:40.983Z,18.33
2018-04-24T22:13:09.312Z,15.32
2018-04-24T22:15:38.412Z,13.38
2018-04-24T22:18:07.627Z,17.20
2018-04-24T22:20:35.996Z,17.40
2018-04-24T22:23:04.682Z,21.70
2018-04-24T22:25:32.996Z,16.13
2018-04-24T22:28:02.532Z,15.13
2018-04-24T22:30:30.929Z,15.07
2018-04-24T22:33:00.086Z,18.33
2018-04-24T22:35:28.387Z,15.07
2018-04-24T22:37:57.317Z,15.67
2018-04-24T22:40:25.839Z,15.77
2018-04-24T22:42:54.980Z,17.10
2018-04-24T22:45:24.028Z,13.23
2018-04-24T22:47:52.359Z,15.40
2018-04-24T22:50:20.651Z,15.57
2018-04-24T22:52:49.143Z,15.38
2018-04-24T22:55:17.632Z,22.37
2018-04-24T22:57:46.002Z,16.00
2018-04-24T23:00:16.964Z,18.08
2018-04-24T23:02:46.266Z,20.20
2018-04-24T23:05:14.694Z,19.17
2018-04-24T23:07:43.082Z,20.70
2018-04-24T23:10:10.777Z,13.47
2018-04-24T23:12:56.940Z,16.90
2018-04-24T23:15:43.061Z,19.57
2018-04-24T23:18:29.261Z,15.00
2018-04-24T23:20:56.712Z,15.47
2018-04-24T23:23:25.053Z,20.53
2018-04-24T23:25:53.348Z,18.20
2018-04-24T23:28:21.701Z,15.87
2018-04-24T23:30:50.796Z,14.40
2018-04-24T23:33:19.979Z,15.37
2018-04-24T23:35:48.256Z,14.03
2018-04-24T23:38:17.361Z,17.10
2018-04-24T23:40:46.551Z,12.60
2018-04-24T23:43:15.758Z,15.83
2018-04-24T23:45:44.817Z,12.27
2018-04-24T23:48:13.147Z,16.50
2018-04-24T23:50:41.423Z,13.95
2018-04-24T23:53:09.756Z,14.93
2018-04-24T23:55:39.443Z,13.27
2018-04-24T23:58:07.733Z,14.90
